createdAt,value
2022-08-30T00:00:09.185Z,71.11
2022-08-30T00:01:14.087Z,71.07
2022-08-30T00:02:15.885Z,71.35
2022-08-30T00:03:17.512Z,71.27
2022-08-30T00:04:19.105Z,71.13
2022-08-30T00:05:20.483Z,71.18
2022-08-30T00:06:23.025Z,71.42
2022-08-30T00:07:24.407Z,71.54
2022-08-30T00:08:25.807Z,71.69
2022-08-30T00:09:27.159Z,71.95
2022-08-30T00:10:28.964Z,72.24
2022-08-30T00:11:30.405Z,72.06
2022-08-30T00:12:32.885Z,72.06
2022-08-30T00:13:34.291Z,72.17
2022-08-30T00:14:35.787Z,72.70
2022-08-30T00:15:37.195Z,72.46
2022-08-30T00:16:38.575Z,72.21
2022-08-30T00:17:40.535Z,72.43
2022-08-30T00:18:41.916Z,73.00
2022-08-30T00:19:43.289Z,73.43
2022-08-30T00:20:45.405Z,73.48
2022-08-30T00:21:46.772Z,73.37
2022-08-30T00:22:48.567Z,73.49
2022-08-30T00:23:49.902Z,73.32
2022-08-30T00:24:51.405Z,73.06
2022-08-30T00:25:52.755Z,73.25
2022-08-30T00:26:54.141Z,73.84
2022-08-30T00:27:55.473Z,74.48
2022-08-30T00:28:56.817Z,74.74
2022-08-30T00:29:58.361Z,74.41
2022-08-30T00:31:00.412Z,74.56
2022-08-30T00:32:01.866Z,74.82
2022-08-30T00:33:03.784Z,74.50
2022-08-30T00:34:05.146Z,74.23
2022-08-30T00:35:07.292Z,74.21
2022-08-30T00:36:08.620Z,73.92
2022-08-30T00:37:09.957Z,74.26
2022-08-30T00:38:12.844Z,74.02
2022-08-30T00:39:14.181Z,74.13
2022-08-30T00:40:15.867Z,74.51
2022-08-30T00:41:17.327Z,74.53
2022-08-30T00:42:20.088Z,74.72
2022-08-30T00:43:24.200Z,74.65
2022-08-30T00:44:29.116Z,74.75
2022-08-30T00:45:32.119Z,74.38
2022-08-30T00:46:33.527Z,74.44
2022-08-30T00:47:34.969Z,74.69
2022-08-30T00:48:38.898Z,74.44
2022-08-30T00:49:45.176Z,74.80
2022-08-30T00:50:49.107Z,74.92
2022-08-30T00:51:50.525Z,75.46
2022-08-30T00:52:53.663Z,75.24
2022-08-30T00:53:56.495Z,74.97
2022-08-30T00:54:57.856Z,75.17
2022-08-30T00:56:00.267Z,75.42
2022-08-30T00:57:02.310Z,75.11
2022-08-30T00:58:05.430Z,75.08
2022-08-30T00:59:07.785Z,75.65
2022-08-30T01:00:09.589Z,75.42
2022-08-30T01:01:11.286Z,75.34
2022-08-30T01:02:12.968Z,75.96
2022-08-30T01:03:14.398Z,76.05
2022-08-30T01:04:16.047Z,76.26
2022-08-30T01:05:17.455Z,76.12
2022-08-30T01:06:18.826Z,76.54
2022-08-30T01:07:20.183Z,76.58
2022-08-30T01:08:21.611Z,76.53
2022-08-30T01:09:24.578Z,76.73
2022-08-30T01:10:25.956Z,76.60
2022-08-30T01:11:27.715Z,76.75
2022-08-30T01:12:29.360Z,76.65
2022-08-30T01:13:31.383Z,76.97
2022-08-30T01:14:33.157Z,76.69
2022-08-30T01:15:34.825Z,76.47
2022-08-30T01:16:36.711Z,76.50
2022-08-30T01:17:38.411Z,76.13
2022-08-30T01:18:40.263Z,76.54
2022-08-30T01:19:50.249Z,76.63
2022-08-30T01:20:54.136Z,76.18
2022-08-30T01:22:00.212Z,76.14
2022-08-30T01:23:01.546Z,76.58
2022-08-30T01:24:04.026Z,76.73
2022-08-30T01:25:08.348Z,76.79
2022-08-30T01:26:10.708Z,76.83
2022-08-30T01:27:12.088Z,76.84
2022-08-30T01:28:15.718Z,76.98
2022-08-30T01:29:19.703Z,77.00
2022-08-30T01:30:21.700Z,77.27
2022-08-30T01:31:23.184Z,77.06
2022-08-30T01:32:29.085Z,77.28
2022-08-30T01:33:30.857Z,77.02
2022-08-30T01:34:32.220Z,76.50
2022-08-30T01:35:38.032Z,76.49
2022-08-30T01:36:44.685Z,76.88
2022-08-30T01:37:47.239Z,76.31
2022-08-30T01:38:51.120Z,76.24
2022-08-30T01:39:52.908Z,76.72
2022-08-30T01:41:07.321Z,76.18
2022-08-30T01:42:08.664Z,76.34
2022-08-30T01:43:11.136Z,76.79
2022-08-30T01:44:12.966Z,76.96
2022-08-30T01:45:14.356Z,77.24
2022-08-30T01:46:17.293Z,77.69
2022-08-30T01:47:19.205Z,78.03
2022-08-30T01:48:20.559Z,77.62
2022-08-30T01:49:26.037Z,78.41
2022-08-30T01:50:29.336Z,78.01
2022-08-30T01:51:30.716Z,78.34
2022-08-30T01:52:32.083Z,78.64
2022-08-30T01:53:33.427Z,78.36
2022-08-30T01:54:38.154Z,78.64
2022-08-30T01:55:40.018Z,78.56
2022-08-30T01:56:41.403Z,78.20
2022-08-30T01:57:42.798Z,78.46
2022-08-30T01:58:44.636Z,78.56
2022-08-30T01:59:46.007Z,78.07
2022-08-30T02:00:47.417Z,78.20
2022-08-30T02:01:48.867Z,78.19
2022-08-30T02:02:50.293Z,78.09
2022-08-30T02:03:54.433Z,78.04
2022-08-30T02:04:56.821Z,78.34
2022-08-30T02:06:03.777Z,78.28
2022-08-30T02:07:05.556Z,78.81
2022-08-30T02:08:06.900Z,78.81
2022-08-30T02:09:08.264Z,78.79
2022-08-30T02:10:09.944Z,78.70
2022-08-30T02:11:12.047Z,78.79
2022-08-30T02:12:13.628Z,78.80
2022-08-30T02:13:15.194Z,78.97
2022-08-30T02:14:16.654Z,79.24
2022-08-30T02:15:22.623Z,79.61
2022-08-30T02:16:24.656Z,79.29
2022-08-30T02:17:26.589Z,79.28
2022-08-30T02:18:27.952Z,79.01
2022-08-30T02:19:29.479Z,78.71
2022-08-30T02:20:30.840Z,78.64
2022-08-30T02:21:32.228Z,78.50
2022-08-30T02:22:33.563Z,78.67
2022-08-30T02:23:35.141Z,79.31
2022-08-30T02:24:36.540Z,79.09
2022-08-30T02:25:37.952Z,79.21
2022-08-30T02:26:39.352Z,78.96
2022-08-30T02:27:40.716Z,78.98
2022-08-30T02:28:49.739Z,79.03
2022-08-30T02:29:52.054Z,79.40
2022-08-30T02:30:53.756Z,79.16
2022-08-30T02:31:55.177Z,79.01
2022-08-30T02:32:56.730Z,78.87
2022-08-30T02:33:58.069Z,78.21
2022-08-30T02:34:59.456Z,78.84
2022-08-30T02:36:00.868Z,78.64
2022-08-30T02:37:02.198Z,78.82
2022-08-30T02:38:04.057Z,78.98
2022-08-30T02:39:05.387Z,79.10
2022-08-30T02:40:07.022Z,79.64
2022-08-30T02:41:08.367Z,79.34
2022-08-30T02:42:09.781Z,79.33
2022-08-30T02:43:11.984Z,79.83
2022-08-30T02:44:13.401Z,79.35
2022-08-30T02:45:15.189Z,79.87
2022-08-30T02:46:18.749Z,79.82
2022-08-30T02:47:20.107Z,80.11
2022-08-30T02:48:21.524Z,80.16
2022-08-30T02:49:33.112Z,80.25
2022-08-30T02:50:35.175Z,80.35
2022-08-30T02:51:36.553Z,80.51
2022-08-30T02:52:38.287Z,80.35
2022-08-30T02:53:40.871Z,79.99
2022-08-30T02:54:42.194Z,80.15
2022-08-30T02:55:43.806Z,80.73
2022-08-30T02:56:48.098Z,80.49
2022-08-30T02:57:49.483Z,80.67
2022-08-30T02:58:50.815Z,80.58
2022-08-30T02:59:52.344Z,80.81
2022-08-30T03:00:54.006Z,81.18
2022-08-30T03:01:55.425Z,80.72
2022-08-30T03:02:56.816Z,81.47
2022-08-30T03:03:58.202Z,81.16
2022-08-30T03:04:59.610Z,81.38
2022-08-30T03:06:01.064Z,81.92
2022-08-30T03:07:02.439Z,82.02
2022-08-30T03:08:03.944Z,81.57
2022-08-30T03:09:05.481Z,81.29
2022-08-30T03:10:07.024Z,81.33
2022-08-30T03:11:08.842Z,81.55
2022-08-30T03:12:10.511Z,81.33
2022-08-30T03:13:11.906Z,81.69
2022-08-30T03:14:13.276Z,81.77
2022-08-30T03:15:15.765Z,82.41
2022-08-30T03:16:17.303Z,82.41
2022-08-30T03:17:18.782Z,82.67
2022-08-30T03:18:20.707Z,82.89
2022-08-30T03:19:22.080Z,82.82
2022-08-30T03:20:23.893Z,83.05
2022-08-30T03:21:25.403Z,82.57
2022-08-30T03:22:26.744Z,82.77
2022-08-30T03:23:28.124Z,82.82
2022-08-30T03:24:29.550Z,83.02
2022-08-30T03:25:31.405Z,83.10
2022-08-30T03:26:32.775Z,83.24
2022-08-30T03:27:35.388Z,82.97
2022-08-30T03:28:36.763Z,83.63
2022-08-30T03:29:38.143Z,82.88
2022-08-30T03:30:39.535Z,83.30
2022-08-30T03:31:52.981Z,83.33
2022-08-30T03:32:55.069Z,83.72
2022-08-30T03:33:56.496Z,83.91
2022-08-30T03:34:57.876Z,84.12
2022-08-30T03:35:59.762Z,84.08
2022-08-30T03:37:01.184Z,83.84
2022-08-30T03:38:02.554Z,83.97
2022-08-30T03:39:04.647Z,83.88
2022-08-30T03:40:08.851Z,83.97
2022-08-30T03:41:10.211Z,84.43
2022-08-30T03:42:12.009Z,84.43
2022-08-30T03:43:13.478Z,84.08
2022-08-30T03:44:14.896Z,84.17
2022-08-30T03:45:17.875Z,84.24
2022-08-30T03:46:19.237Z,83.83
2022-08-30T03:47:25.999Z,83.87
2022-08-30T03:48:27.699Z,84.07
2022-08-30T03:49:29.034Z,84.42
2022-08-30T03:50:30.937Z,84.10
2022-08-30T03:51:32.643Z,84.50
2022-08-30T03:52:34.060Z,85.29
2022-08-30T03:53:35.415Z,85.78
2022-08-30T03:54:37.891Z,86.18
2022-08-30T03:55:39.325Z,86.32
2022-08-30T03:56:40.702Z,86.02
2022-08-30T03:57:43.452Z,85.74
2022-08-30T03:58:45.140Z,85.21
2022-08-30T03:59:46.533Z,85.43
2022-08-30T04:00:47.967Z,85.53
2022-08-30T04:01:49.452Z,85.99
2022-08-30T04:02:50.827Z,85.90
2022-08-30T04:03:52.175Z,85.58
2022-08-30T04:04:53.508Z,85.39
2022-08-30T04:05:55.647Z,85.75
2022-08-30T04:06:57.062Z,85.78
2022-08-30T04:07:58.690Z,86.14
2022-08-30T04:09:00.148Z,85.70
2022-08-30T04:10:01.645Z,85.93
2022-08-30T04:11:03.041Z,86.53
2022-08-30T04:12:06.617Z,86.80
2022-08-30T04:13:07.992Z,86.79
2022-08-30T04:14:09.463Z,86.95
2022-08-30T04:15:11.379Z,87.04
2022-08-30T04:16:12.976Z,87.38
2022-08-30T04:17:15.044Z,87.51
2022-08-30T04:18:17.199Z,87.27
2022-08-30T04:19:18.652Z,87.13
2022-08-30T04:20:20.600Z,87.01
2022-08-30T04:21:21.924Z,87.21
2022-08-30T04:22:23.361Z,87.80
2022-08-30T04:23:24.728Z,87.73
2022-08-30T04:24:26.067Z,88.56
2022-08-30T04:25:27.498Z,88.61
2022-08-30T04:26:29.439Z,89.02
2022-08-30T04:27:31.086Z,89.13
2022-08-30T04:28:32.449Z,88.51
2022-08-30T04:29:33.983Z,88.90
2022-08-30T04:30:38.374Z,89.05
2022-08-30T04:31:39.761Z,89.46
2022-08-30T04:32:41.171Z,89.34
2022-08-30T04:33:42.875Z,89.35
2022-08-30T04:34:44.216Z,89.19
2022-08-30T04:35:46.712Z,88.99
2022-08-30T04:36:49.118Z,89.34
2022-08-30T04:37:51.155Z,89.83
2022-08-30T04:38:52.504Z,90.26
2022-08-30T04:39:58.184Z,89.92
2022-08-30T04:40:59.656Z,90.24
2022-08-30T04:42:01.123Z,91.35
2022-08-30T04:43:03.168Z,90.82
2022-08-30T04:44:04.540Z,90.25
2022-08-30T04:45:07.568Z,90.14
2022-08-30T04:46:09.811Z,90.69
2022-08-30T04:47:11.227Z,90.41
2022-08-30T04:48:12.591Z,90.37
2022-08-30T04:49:14.209Z,90.68
2022-08-30T04:50:17.169Z,90.66
2022-08-30T04:51:18.569Z,91.05
2022-08-30T04:52:19.982Z,91.15
2022-08-30T04:53:21.371Z,91.52
2022-08-30T04:54:22.710Z,91.78
2022-08-30T04:55:24.140Z,91.62
2022-08-30T04:56:25.488Z,91.75
2022-08-30T04:57:27.343Z,91.87
2022-08-30T04:58:28.723Z,91.83
2022-08-30T04:59:30.082Z,91.56
2022-08-30T05:00:31.450Z,91.24
2022-08-30T05:01:44.773Z,91.22
2022-08-30T05:02:47.569Z,90.99
2022-08-30T05:03:49.499Z,90.91
2022-08-30T05:04:50.855Z,91.03
2022-08-30T05:05:52.279Z,90.87
2022-08-30T05:06:53.631Z,91.22
2022-08-30T05:07:55.010Z,91.26
2022-08-30T05:08:56.707Z,90.97
2022-08-30T05:09:58.435Z,91.21
2022-08-30T05:10:59.844Z,91.09
2022-08-30T05:12:01.207Z,90.66
2022-08-30T05:13:02.531Z,90.27
2022-08-30T05:14:04.199Z,89.89
2022-08-30T05:15:05.795Z,89.76
2022-08-30T05:16:08.335Z,89.61
2022-08-30T05:17:09.720Z,89.53
2022-08-30T05:18:11.690Z,89.22
2022-08-30T05:19:15.673Z,88.64
2022-08-30T05:20:17.082Z,88.28
2022-08-30T05:21:22.770Z,88.64
2022-08-30T05:22:24.131Z,88.87
2022-08-30T05:23:25.475Z,88.65
2022-08-30T05:24:26.841Z,88.06
2022-08-30T05:25:29.526Z,88.43
2022-08-30T05:26:32.322Z,87.95
2022-08-30T05:27:33.696Z,87.75
2022-08-30T05:28:39.099Z,86.78
2022-08-30T05:29:40.434Z,86.46
2022-08-30T05:30:41.823Z,85.83
2022-08-30T05:31:43.813Z,85.71
2022-08-30T05:32:45.578Z,85.52
2022-08-30T05:33:47.505Z,84.95
2022-08-30T05:34:49.031Z,84.51
2022-08-30T05:35:52.765Z,84.16
2022-08-30T05:36:54.109Z,83.62
2022-08-30T05:37:55.487Z,83.23
2022-08-30T05:38:56.811Z,82.97
2022-08-30T05:39:58.274Z,82.86
2022-08-30T05:41:02.360Z,82.71
2022-08-30T05:42:06.660Z,82.33
2022-08-30T05:43:08.536Z,82.38
2022-08-30T05:44:10.385Z,81.88
2022-08-30T05:45:12.728Z,81.31
2022-08-30T05:46:14.798Z,80.94
2022-08-30T05:47:16.255Z,81.00
2022-08-30T05:48:17.746Z,80.22
2022-08-30T05:49:19.389Z,79.68
2022-08-30T05:50:20.722Z,79.97
2022-08-30T05:51:24.294Z,79.39
2022-08-30T05:52:25.652Z,78.89
2022-08-30T05:53:27.007Z,78.02
2022-08-30T05:54:28.344Z,77.91
2022-08-30T05:55:29.711Z,77.88
2022-08-30T05:56:32.390Z,77.94
2022-08-30T05:57:37.409Z,77.47
2022-08-30T05:58:41.487Z,77.39
2022-08-30T05:59:43.059Z,78.43
2022-08-30T06:00:44.416Z,78.87
2022-08-30T06:01:46.741Z,79.22
2022-08-30T06:02:52.509Z,78.85
2022-08-30T06:03:55.395Z,79.17
2022-08-30T06:04:56.739Z,79.06
2022-08-30T06:05:59.271Z,78.80
2022-08-30T06:07:00.656Z,79.14
2022-08-30T06:08:02.054Z,79.19
2022-08-30T06:09:05.233Z,79.22
2022-08-30T06:10:07.447Z,78.72
2022-08-30T06:11:08.792Z,78.38
2022-08-30T06:12:10.228Z,77.31
2022-08-30T06:13:12.825Z,77.37
2022-08-30T06:14:14.759Z,77.50
2022-08-30T06:15:16.230Z,77.14
2022-08-30T06:16:19.515Z,77.18
2022-08-30T06:17:20.930Z,76.81
2022-08-30T06:18:28.519Z,76.12
2022-08-30T06:19:30.148Z,76.13
2022-08-30T06:20:31.557Z,75.43
2022-08-30T06:21:34.501Z,75.18
2022-08-30T06:22:36.171Z,75.30
2022-08-30T06:23:37.692Z,75.54
2022-08-30T06:24:56.468Z,75.39
2022-08-30T06:26:06.386Z,75.12
2022-08-30T06:27:09.326Z,74.90
2022-08-30T06:28:11.991Z,73.86
2022-08-30T06:29:14.762Z,73.79
2022-08-30T06:30:16.197Z,73.16
2022-08-30T06:31:21.715Z,72.79
2022-08-30T06:32:23.193Z,72.41
2022-08-30T06:33:24.682Z,71.69
2022-08-30T06:34:26.057Z,71.93
2022-08-30T06:35:28.603Z,72.72
2022-08-30T06:36:30.121Z,67.34
2022-08-30T06:37:31.850Z,63.29
2022-08-30T06:38:33.661Z,61.80
2022-08-30T06:39:36.010Z,60.47
2022-08-30T06:40:37.598Z,60.23
2022-08-30T06:41:39.776Z,61.07
2022-08-30T06:42:51.136Z,57.68
2022-08-30T06:43:52.773Z,56.79
2022-08-30T06:44:55.338Z,56.80
2022-08-30T06:46:01.536Z,54.77
2022-08-30T06:47:03.333Z,54.21
2022-08-30T06:48:04.684Z,54.68
2022-08-30T06:49:06.920Z,53.34
2022-08-30T06:50:08.668Z,54.36
2022-08-30T06:51:13.388Z,54.62
2022-08-30T06:52:15.649Z,55.63
2022-08-30T06:53:17.076Z,56.41
2022-08-30T06:54:19.504Z,56.62
2022-08-30T06:55:20.964Z,56.37
2022-08-30T06:56:22.914Z,57.72
2022-08-30T06:57:24.577Z,57.71
2022-08-30T06:58:26.323Z,57.65
2022-08-30T06:59:27.763Z,58.00
2022-08-30T07:00:29.217Z,58.45
2022-08-30T07:01:30.875Z,58.36
2022-08-30T07:02:32.299Z,58.51
2022-08-30T07:03:36.563Z,58.42
2022-08-30T07:04:37.988Z,58.54
2022-08-30T07:05:39.574Z,59.47
2022-08-30T07:06:41.341Z,59.54
2022-08-30T07:07:42.863Z,59.88
2022-08-30T07:08:44.518Z,60.58
2022-08-30T07:09:46.124Z,61.15
2022-08-30T07:10:47.568Z,61.45
2022-08-30T07:11:48.955Z,60.87
2022-08-30T07:12:50.340Z,60.64
2022-08-30T07:13:51.729Z,60.54
2022-08-30T07:14:53.069Z,61.34
2022-08-30T07:15:54.441Z,60.44
2022-08-30T07:16:55.872Z,60.68
2022-08-30T07:17:57.367Z,60.76
2022-08-30T07:18:58.885Z,61.44
2022-08-30T07:20:00.271Z,60.40
2022-08-30T07:21:09.285Z,60.67
2022-08-30T07:22:10.637Z,61.00
2022-08-30T07:23:12.020Z,60.66
2022-08-30T07:24:13.439Z,60.27
2022-08-30T07:25:15.501Z,60.34
2022-08-30T07:26:19.304Z,60.39
2022-08-30T07:27:20.660Z,60.16
2022-08-30T07:28:22.228Z,59.74
2022-08-30T07:29:23.648Z,59.92
2022-08-30T07:30:25.072Z,60.57
2022-08-30T07:31:26.550Z,59.53
2022-08-30T07:32:28.581Z,60.25
2022-08-30T07:33:30.389Z,60.40
2022-08-30T07:34:32.012Z,60.45
2022-08-30T07:35:33.808Z,59.47
2022-08-30T07:36:36.422Z,59.63
2022-08-30T07:37:37.809Z,59.32
2022-08-30T07:38:39.331Z,59.54
2022-08-30T07:39:45.813Z,60.47
2022-08-30T07:40:49.207Z,59.81
2022-08-30T07:41:50.734Z,59.92
2022-08-30T07:42:52.200Z,59.02
2022-08-30T07:43:54.280Z,58.81
2022-08-30T07:44:56.924Z,58.92
2022-08-30T07:46:02.759Z,59.15
2022-08-30T07:47:04.267Z,60.74
2022-08-30T07:48:05.718Z,59.78
2022-08-30T07:49:10.823Z,59.21
2022-08-30T07:50:12.922Z,58.82
2022-08-30T07:51:16.452Z,57.15
2022-08-30T07:52:17.864Z,58.03
2022-08-30T07:53:19.347Z,57.92
2022-08-30T07:54:20.904Z,57.57
2022-08-30T07:55:22.357Z,57.11
2022-08-30T07:56:24.640Z,57.24
2022-08-30T07:57:26.255Z,56.93
2022-08-30T07:58:27.770Z,56.98
2022-08-30T07:59:31.810Z,56.40
2022-08-30T08:00:35.633Z,55.77
2022-08-30T08:01:37.007Z,55.60
2022-08-30T08:02:38.606Z,55.88
2022-08-30T08:03:40.604Z,56.17
2022-08-30T08:04:42.172Z,56.16
2022-08-30T08:05:44.795Z,56.09
2022-08-30T08:06:46.175Z,55.66
2022-08-30T08:07:47.588Z,55.62
2022-08-30T08:08:49.100Z,55.34
2022-08-30T08:09:50.696Z,54.88
2022-08-30T08:10:52.070Z,53.85
2022-08-30T08:11:53.555Z,54.79
2022-08-30T08:12:54.955Z,54.58
2022-08-30T08:13:56.433Z,55.20
2022-08-30T08:14:57.809Z,54.48
2022-08-30T08:15:59.342Z,54.16
2022-08-30T08:17:01.035Z,53.73
2022-08-30T08:18:02.497Z,53.97
2022-08-30T08:19:04.842Z,54.04
2022-08-30T08:20:06.459Z,54.05
2022-08-30T08:21:07.830Z,54.05
2022-08-30T08:22:20.447Z,54.61
2022-08-30T08:23:22.780Z,55.11
2022-08-30T08:24:24.191Z,55.31
2022-08-30T08:25:25.777Z,55.01
2022-08-30T08:26:27.306Z,55.39
2022-08-30T08:27:28.787Z,55.58
2022-08-30T08:28:30.194Z,55.06
2022-08-30T08:29:31.795Z,55.21
2022-08-30T08:30:34.373Z,55.96
2022-08-30T08:31:36.384Z,56.30
2022-08-30T08:32:37.832Z,55.87
2022-08-30T08:33:39.167Z,55.65
2022-08-30T08:34:40.800Z,56.30
2022-08-30T08:35:42.535Z,56.05
2022-08-30T08:36:43.909Z,56.76
2022-08-30T08:37:45.406Z,57.01
2022-08-30T08:38:46.994Z,56.74
2022-08-30T08:39:48.624Z,57.80
2022-08-30T08:41:03.199Z,58.00
2022-08-30T08:42:04.533Z,57.93
2022-08-30T08:43:10.709Z,57.93
2022-08-30T08:44:19.751Z,57.66
2022-08-30T08:45:29.651Z,57.67
2022-08-30T08:46:52.404Z,57.91
2022-08-30T08:48:18.835Z,58.00
2022-08-30T08:49:21.374Z,57.83
2022-08-30T08:50:22.992Z,57.48
2022-08-30T08:51:27.096Z,57.44
2022-08-30T08:52:41.920Z,57.99
2022-08-30T08:53:47.635Z,57.94
2022-08-30T08:54:59.667Z,57.78
2022-08-30T08:56:01.748Z,57.37
2022-08-30T08:57:03.288Z,56.77
2022-08-30T08:58:04.638Z,56.72
2022-08-30T08:59:09.635Z,57.06
2022-08-30T09:00:12.448Z,57.16
2022-08-30T09:01:15.217Z,56.55
2022-08-30T09:02:19.619Z,56.81
2022-08-30T09:03:21.820Z,56.79
2022-08-30T09:04:26.596Z,56.37
2022-08-30T09:05:34.390Z,55.52
2022-08-30T09:06:50.533Z,55.44
2022-08-30T09:07:54.105Z,54.64
2022-08-30T09:08:56.041Z,54.88
2022-08-30T09:09:58.188Z,54.70
2022-08-30T09:11:06.049Z,55.07
2022-08-30T09:12:09.902Z,53.94
2022-08-30T09:13:13.541Z,54.20
2022-08-30T09:14:34.306Z,55.02
2022-08-30T09:15:36.279Z,54.09
2022-08-30T09:16:56.448Z,54.35
2022-08-30T09:17:59.506Z,53.97
2022-08-30T09:19:01.457Z,54.44
2022-08-30T09:20:02.917Z,55.03
2022-08-30T09:21:07.973Z,53.36
2022-08-30T09:22:15.101Z,53.20
2022-08-30T09:23:17.373Z,52.95
2022-08-30T09:24:18.929Z,53.38
2022-08-30T09:25:31.609Z,54.15
2022-08-30T09:26:36.937Z,54.36
2022-08-30T09:27:45.927Z,52.28
2022-08-30T09:28:49.446Z,52.17
2022-08-30T09:29:52.491Z,51.33
2022-08-30T09:31:00.188Z,51.37
2022-08-30T09:32:22.475Z,51.34
2022-08-30T09:33:24.500Z,51.91
2022-08-30T09:34:25.857Z,51.87
2022-08-30T09:35:37.673Z,52.03
2022-08-30T09:36:46.795Z,51.19
2022-08-30T09:38:03.488Z,51.47
2022-08-30T09:39:15.307Z,51.35
2022-08-30T09:40:21.828Z,50.71
2022-08-30T09:41:34.606Z,51.80
2022-08-30T09:42:36.009Z,50.81
2022-08-30T09:43:37.488Z,50.48
2022-08-30T09:44:40.157Z,50.49
2022-08-30T09:45:42.722Z,50.85
2022-08-30T09:46:54.445Z,50.68
2022-08-30T09:47:57.455Z,51.13
2022-08-30T09:48:59.143Z,50.87
2022-08-30T09:50:08.032Z,50.85
2022-08-30T09:51:11.055Z,49.88
2022-08-30T09:52:26.247Z,50.00
2022-08-30T09:53:34.498Z,50.07
2022-08-30T09:54:41.475Z,50.24
2022-08-30T09:55:51.928Z,50.43
2022-08-30T09:56:59.951Z,50.26
2022-08-30T09:58:07.032Z,49.51
2022-08-30T09:59:08.538Z,48.94
2022-08-30T10:00:20.653Z,47.96
2022-08-30T10:01:24.654Z,48.59
2022-08-30T10:02:32.830Z,48.58
2022-08-30T10:03:40.706Z,49.65
2022-08-30T10:05:11.693Z,49.99
2022-08-30T10:06:33.320Z,50.01
2022-08-30T10:07:41.692Z,48.32
2022-08-30T10:08:50.766Z,48.28
2022-08-30T10:10:12.946Z,48.46
2022-08-30T10:11:35.335Z,48.72
2022-08-30T10:12:36.851Z,48.11
2022-08-30T10:13:51.506Z,48.42
2022-08-30T10:14:59.114Z,48.52
2022-08-30T10:16:00.436Z,48.14
2022-08-30T10:17:07.867Z,48.42
2022-08-30T10:18:17.380Z,48.60
2022-08-30T10:19:22.166Z,47.13
2022-08-30T10:20:29.357Z,46.97
2022-08-30T10:21:36.925Z,45.60
2022-08-30T10:22:43.499Z,46.67
2022-08-30T10:23:51.251Z,46.29
2022-08-30T10:25:05.195Z,46.81
2022-08-30T10:26:25.371Z,46.63
2022-08-30T10:27:29.713Z,45.43
2022-08-30T10:28:37.612Z,46.11
2022-08-30T10:29:45.486Z,45.49
2022-08-30T10:30:56.521Z,45.49
2022-08-30T10:32:27.267Z,44.00
2022-08-30T10:33:40.095Z,45.07
2022-08-30T10:34:46.133Z,45.19
2022-08-30T10:35:50.670Z,45.46
2022-08-30T10:37:03.087Z,45.46
2022-08-30T10:38:24.668Z,45.11
2022-08-30T10:39:30.965Z,44.82
2022-08-30T10:40:34.994Z,44.66
2022-08-30T10:41:49.984Z,43.92
2022-08-30T10:42:52.015Z,42.22
2022-08-30T10:44:00.102Z,42.58
2022-08-30T10:45:05.166Z,42.63
2022-08-30T10:46:11.244Z,43.17
2022-08-30T10:47:12.580Z,42.77
2022-08-30T10:48:30.685Z,42.77
2022-08-30T10:49:35.109Z,43.57
2022-08-30T10:50:41.304Z,44.07
2022-08-30T10:52:01.488Z,43.36
2022-08-30T10:53:09.715Z,43.35
2022-08-30T10:54:18.733Z,43.34
2022-08-30T10:55:28.099Z,42.06
2022-08-30T10:56:29.720Z,42.51
2022-08-30T10:57:31.059Z,42.19
2022-08-30T10:58:32.897Z,42.73
2022-08-30T10:59:36.741Z,41.39
2022-08-30T11:00:50.783Z,42.27
2022-08-30T11:01:54.968Z,42.17
2022-08-30T11:03:15.227Z,41.66
2022-08-30T11:04:34.870Z,42.20
2022-08-30T11:05:45.331Z,41.40
2022-08-30T11:06:56.577Z,42.49
2022-08-30T11:08:24.153Z,40.61
2022-08-30T11:09:53.573Z,40.94
2022-08-30T11:11:04.597Z,40.93
2022-08-30T11:12:21.350Z,41.13
2022-08-30T11:13:27.097Z,40.69
2022-08-30T11:14:29.624Z,40.82
2022-08-30T11:15:34.715Z,41.26
2022-08-30T11:16:41.574Z,40.02
2022-08-30T11:17:47.352Z,39.89
2022-08-30T11:18:55.602Z,40.02
2022-08-30T11:19:58.583Z,40.98
2022-08-30T11:21:20.716Z,40.33
2022-08-30T11:22:26.719Z,40.04
2022-08-30T11:23:32.808Z,39.49
2022-08-30T11:24:54.549Z,40.04
2022-08-30T11:26:16.905Z,40.63
2022-08-30T11:27:40.708Z,39.58
2022-08-30T11:28:42.117Z,39.49
2022-08-30T11:29:44.656Z,39.47
2022-08-30T11:30:46.486Z,40.86
2022-08-30T11:31:47.832Z,40.43
2022-08-30T11:33:05.442Z,40.92
2022-08-30T11:34:11.094Z,40.05
2022-08-30T11:35:32.927Z,40.07
2022-08-30T11:36:37.505Z,39.42
2022-08-30T11:37:41.131Z,39.07
2022-08-30T11:38:42.479Z,39.79
2022-08-30T11:39:47.859Z,40.14
2022-08-30T11:41:05.739Z,39.89
2022-08-30T11:42:32.060Z,40.34
2022-08-30T11:43:36.570Z,40.39
2022-08-30T11:44:38.392Z,39.08
2022-08-30T11:45:43.597Z,38.85
2022-08-30T11:46:45.413Z,39.41
2022-08-30T11:48:07.155Z,39.82
2022-08-30T11:49:11.773Z,40.53
2022-08-30T11:50:17.033Z,40.12
2022-08-30T11:51:23.406Z,39.25
2022-08-30T11:52:26.934Z,38.41
2022-08-30T11:53:32.659Z,38.68
2022-08-30T11:54:53.486Z,38.16
2022-08-30T11:56:14.519Z,37.82
2022-08-30T11:57:21.886Z,38.60
2022-08-30T11:58:23.788Z,38.03
2022-08-30T11:59:46.477Z,37.98
2022-08-30T12:01:16.165Z,38.79
2022-08-30T12:02:43.275Z,37.87
2022-08-30T12:03:45.554Z,38.04
2022-08-30T12:04:47.602Z,38.27
2022-08-30T12:05:51.166Z,38.18
2022-08-30T12:06:54.478Z,37.56
2022-08-30T12:08:00.204Z,37.92
2022-08-30T12:09:02.658Z,38.93
2022-08-30T12:10:05.582Z,38.77
2022-08-30T12:11:26.929Z,37.91
2022-08-30T12:12:37.425Z,37.12
2022-08-30T12:13:42.224Z,37.60
2022-08-30T12:14:43.554Z,37.64
2022-08-30T12:16:00.455Z,37.68
2022-08-30T12:17:09.802Z,38.25
2022-08-30T12:18:14.754Z,38.07
2022-08-30T12:19:20.778Z,38.83
2022-08-30T12:20:25.318Z,38.04
2022-08-30T12:21:33.388Z,37.16
2022-08-30T12:22:45.475Z,38.04
2022-08-30T12:23:56.883Z,38.82
2022-08-30T12:24:58.578Z,38.47
2022-08-30T12:26:10.894Z,37.14
2022-08-30T12:27:26.098Z,38.56
2022-08-30T12:28:27.452Z,37.30
2022-08-30T12:29:29.872Z,37.57
2022-08-30T12:30:31.270Z,37.06
2022-08-30T12:31:32.883Z,37.24
2022-08-30T12:32:42.270Z,37.43
2022-08-30T12:33:48.039Z,36.83
2022-08-30T12:34:54.192Z,36.10
2022-08-30T12:35:55.582Z,36.54
2022-08-30T12:37:01.641Z,37.59
2022-08-30T12:38:04.426Z,37.22
2022-08-30T12:39:07.501Z,37.35
2022-08-30T12:40:11.969Z,37.38
2022-08-30T12:41:18.707Z,36.58
2022-08-30T12:42:26.826Z,36.29
2022-08-30T12:43:39.640Z,36.42
2022-08-30T12:44:43.447Z,36.75
2022-08-30T12:45:50.754Z,36.38
2022-08-30T12:46:59.711Z,34.99
2022-08-30T12:48:08.740Z,34.86
2022-08-30T12:49:13.581Z,34.66
2022-08-30T12:50:17.810Z,36.29
2022-08-30T12:51:27.647Z,36.79
2022-08-30T12:52:31.723Z,36.30
2022-08-30T12:53:34.585Z,36.91
2022-08-30T12:54:39.840Z,35.89
2022-08-30T12:55:55.089Z,35.36
2022-08-30T12:57:14.069Z,34.73
2022-08-30T12:58:34.516Z,34.97
2022-08-30T12:59:55.447Z,34.73
2022-08-30T13:01:15.369Z,35.23
2022-08-30T13:02:20.442Z,34.16
2022-08-30T13:03:30.708Z,34.42
2022-08-30T13:04:32.275Z,34.62
2022-08-30T13:05:38.267Z,35.00
2022-08-30T13:06:51.121Z,35.54
2022-08-30T13:07:52.898Z,34.23
2022-08-30T13:08:54.426Z,35.19
2022-08-30T13:10:16.048Z,34.80
2022-08-30T13:11:20.973Z,34.40
2022-08-30T13:12:24.585Z,35.17
2022-08-30T13:13:36.409Z,35.49
2022-08-30T13:14:37.788Z,35.04
2022-08-30T13:15:41.826Z,35.34
2022-08-30T13:16:45.343Z,36.37
2022-08-30T13:17:46.927Z,35.35
2022-08-30T13:18:55.748Z,34.94
2022-08-30T13:20:02.266Z,34.90
2022-08-30T13:21:22.105Z,34.25
2022-08-30T13:22:24.876Z,35.07
2022-08-30T13:23:28.318Z,35.33
2022-08-30T13:24:29.702Z,35.71
2022-08-30T13:25:32.929Z,35.82
2022-08-30T13:26:37.851Z,36.00
2022-08-30T13:27:41.378Z,36.18
2022-08-30T13:28:50.318Z,36.88
2022-08-30T13:29:52.167Z,36.43
2022-08-30T13:30:53.764Z,36.58
2022-08-30T13:31:56.100Z,36.04
2022-08-30T13:32:57.684Z,36.94
2022-08-30T13:33:59.660Z,37.13
2022-08-30T13:35:01.021Z,35.84
2022-08-30T13:36:03.074Z,34.48
2022-08-30T13:37:04.526Z,35.22
2022-08-30T13:38:06.976Z,34.54
2022-08-30T13:39:08.418Z,35.37
2022-08-30T13:40:11.738Z,35.57
2022-08-30T13:41:13.100Z,35.37
2022-08-30T13:44:09.514Z,34.69
2022-08-30T13:44:57.378Z,34.77
2022-08-30T13:45:58.918Z,34.70
2022-08-30T13:48:24.859Z,35.47
2022-08-30T13:49:45.003Z,35.37
2022-08-30T13:50:46.664Z,35.52